createdAt,value
2017-10-21T00:00:03.052Z,97.41
2017-10-21T00:01:03.016Z,97.69
2017-10-21T00:02:02.996Z,97.50
2017-10-21T00:03:02.967Z,98.02
2017-10-21T00:04:02.962Z,97.36
2017-10-21T00:05:02.939Z,96.97
2017-10-21T00:06:02.911Z,97.74
2017-10-21T00:07:02.887Z,97.64
2017-10-21T00:08:02.869Z,96.97
2017-10-21T00:09:02.841Z,97.17
2017-10-21T00:10:02.815Z,97.36
2017-10-21T00:11:02.797Z,97.26
2017-10-21T00:12:02.797Z,97.74
2017-10-21T00:13:02.755Z,97.74
2017-10-21T00:14:02.774Z,97.74
2017-10-21T00:15:02.735Z,97.92
2017-10-21T00:16:02.706Z,97.92
2017-10-21T00:17:02.679Z,97.83
2017-10-21T00:18:02.663Z,97.36
2017-10-21T00:19:02.626Z,97.55
2017-10-21T00:20:02.618Z,98.30
2017-10-21T00:21:02.578Z,98.49
2017-10-21T00:22:02.581Z,98.21
2017-10-21T00:23:02.539Z,98.02
2017-10-21T00:24:02.535Z,98.21
2017-10-21T00:25:02.504Z,98.30
2017-10-21T00:26:02.465Z,98.30
2017-10-21T00:27:03.127Z,98.59
2017-10-21T00:28:02.425Z,98.68
2017-10-21T00:29:02.429Z,98.78
2017-10-21T00:30:02.390Z,98.49
2017-10-21T00:31:02.369Z,97.83
2017-10-21T00:32:02.341Z,98.49
2017-10-21T00:33:03.147Z,98.49
2017-10-21T00:34:02.296Z,98.30
2017-10-21T00:35:02.286Z,98.30
2017-10-21T00:36:02.261Z,98.49
2017-10-21T00:37:02.239Z,98.54
2017-10-21T00:38:02.210Z,98.54
2017-10-21T00:39:02.188Z,98.07
2017-10-21T00:40:02.171Z,98.07
2017-10-21T00:41:02.144Z,98.64
2017-10-21T00:42:02.131Z,98.35
2017-10-21T00:43:02.109Z,98.54
2017-10-21T00:44:02.086Z,98.73
2017-10-21T00:45:02.066Z,97.78
2017-10-21T00:46:02.042Z,97.60
2017-10-21T00:47:02.024Z,97.97
2017-10-21T00:48:01.991Z,98.16
2017-10-21T00:49:02.007Z,98.26
2017-10-21T00:50:01.961Z,97.97
2017-10-21T00:51:01.925Z,98.45
2017-10-21T00:52:01.915Z,98.45
2017-10-21T00:53:01.896Z,98.02
2017-10-21T00:54:01.883Z,98.26
2017-10-21T00:55:01.836Z,98.26
2017-10-21T00:56:01.818Z,98.50
2017-10-21T00:57:01.807Z,97.55
2017-10-21T00:58:01.774Z,97.74
2017-10-21T00:59:01.755Z,97.92
2017-10-21T01:00:01.735Z,98.50
2017-10-21T01:01:01.713Z,98.50
2017-10-21T01:02:01.684Z,97.64
2017-10-21T01:03:01.672Z,98.40
2017-10-21T01:04:01.906Z,98.50
2017-10-21T01:05:01.651Z,98.59
2017-10-21T01:06:01.617Z,98.31
2017-10-21T01:07:01.584Z,98.40
2017-10-21T01:08:01.565Z,97.64
2017-10-21T01:09:01.538Z,98.02
2017-10-21T01:10:01.519Z,97.55
2017-10-21T01:11:01.488Z,98.02
2017-10-21T01:12:01.478Z,97.45
2017-10-21T01:13:01.468Z,97.74
2017-10-21T01:14:01.434Z,97.55
2017-10-21T01:15:01.404Z,97.74
2017-10-21T01:16:01.381Z,97.55
2017-10-21T01:17:01.372Z,97.83
2017-10-21T01:18:01.343Z,97.64
2017-10-21T01:19:01.337Z,97.74
2017-10-21T01:20:01.296Z,97.74
2017-10-21T01:21:01.279Z,97.64
2017-10-21T01:22:01.264Z,97.83
2017-10-21T01:23:01.235Z,96.98
2017-10-21T01:24:01.210Z,96.98
2017-10-21T01:25:01.204Z,96.98
2017-10-21T01:26:01.189Z,97.45
2017-10-21T01:27:01.158Z,97.07
2017-10-21T01:28:01.124Z,97.36
2017-10-21T01:29:01.095Z,97.27
2017-10-21T01:30:01.095Z,97.17
2017-10-21T01:31:01.060Z,97.41
2017-10-21T01:32:01.050Z,97.36
2017-10-21T01:33:01.009Z,97.45
2017-10-21T01:34:00.997Z,97.50
2017-10-21T01:35:00.980Z,96.98
2017-10-21T01:36:00.969Z,96.98
2017-10-21T01:37:00.937Z,96.93
2017-10-21T01:38:00.910Z,97.41
2017-10-21T01:39:00.905Z,97.27
2017-10-21T01:40:00.875Z,97.03
2017-10-21T01:41:00.848Z,97.36
2017-10-21T01:42:00.848Z,97.50
2017-10-21T01:43:00.812Z,97.41
2017-10-21T01:44:00.777Z,97.12
2017-10-21T01:45:00.759Z,97.41
2017-10-21T01:46:00.751Z,97.12
2017-10-21T01:47:00.709Z,96.84
2017-10-21T01:48:00.699Z,96.69
2017-10-21T01:49:00.670Z,96.79
2017-10-21T01:50:00.664Z,96.93
2017-10-21T01:51:00.630Z,96.93
2017-10-21T01:52:00.605Z,96.74
2017-10-21T01:53:00.597Z,96.74
2017-10-21T01:54:00.562Z,96.93
2017-10-21T01:55:00.545Z,96.74
2017-10-21T01:56:00.520Z,96.74
2017-10-21T01:57:00.516Z,96.84
2017-10-21T01:58:00.472Z,96.74
2017-10-21T01:59:00.448Z,97.12
2017-10-21T02:00:00.433Z,96.93
2017-10-21T02:01:00.439Z,96.65
2017-10-21T02:02:00.420Z,96.84
2017-10-21T02:03:00.372Z,96.36
2017-10-21T02:04:00.375Z,96.93
2017-10-21T02:05:00.335Z,96.26
2017-10-21T02:06:00.313Z,96.26
2017-10-21T02:07:00.278Z,96.36
2017-10-21T02:08:00.265Z,96.36
2017-10-21T02:09:00.246Z,96.84
2017-10-21T02:10:00.244Z,97.03
2017-10-21T02:11:00.204Z,96.84
2017-10-21T02:12:00.174Z,96.84
2017-10-21T02:13:00.165Z,96.84
2017-10-21T02:14:00.134Z,96.65
2017-10-21T02:15:00.117Z,96.84
2017-10-21T02:16:00.086Z,96.84
2017-10-21T02:17:00.075Z,96.93
2017-10-21T02:18:00.060Z,97.03
2017-10-21T02:19:00.035Z,96.45
2017-10-21T02:20:00.122Z,96.55
2017-10-21T02:20:59.972Z,96.84
2017-10-21T02:21:59.970Z,96.36
2017-10-21T02:22:59.938Z,96.93
2017-10-21T02:23:59.921Z,97.03
2017-10-21T02:24:59.892Z,97.12
2017-10-21T02:25:59.880Z,96.93
2017-10-21T02:26:59.854Z,96.93
2017-10-21T02:27:59.833Z,97.41
2017-10-21T02:28:59.804Z,97.12
2017-10-21T02:29:59.799Z,97.31
2017-10-21T02:30:59.774Z,97.12
2017-10-21T02:31:59.745Z,97.22
2017-10-21T02:32:59.731Z,97.50
2017-10-21T02:33:59.706Z,97.50
2017-10-21T02:34:59.687Z,97.22
2017-10-21T02:35:59.669Z,97.12
2017-10-21T02:36:59.650Z,97.41
2017-10-21T02:37:59.612Z,97.60
2017-10-21T02:38:59.609Z,97.41
2017-10-21T02:39:59.594Z,96.93
2017-10-21T02:40:59.571Z,96.93
2017-10-21T02:41:59.538Z,97.41
2017-10-21T02:42:59.508Z,97.41
2017-10-21T02:43:59.519Z,97.50
2017-10-21T02:44:59.468Z,97.03
2017-10-21T02:45:59.449Z,97.60
2017-10-21T02:46:59.435Z,97.22
2017-10-21T02:47:59.412Z,97.03
2017-10-21T02:48:59.383Z,96.36
2017-10-21T02:49:59.376Z,96.65
2017-10-21T02:50:59.343Z,96.93
2017-10-21T02:51:59.337Z,96.36
2017-10-21T02:52:59.308Z,96.45
2017-10-21T02:53:59.280Z,96.93
2017-10-21T02:54:59.246Z,96.17
2017-10-21T02:55:59.236Z,96.36
2017-10-21T02:56:59.212Z,96.26
2017-10-21T02:57:59.189Z,96.45
2017-10-21T02:58:59.187Z,96.45
2017-10-21T02:59:59.148Z,96.55
2017-10-21T03:00:59.122Z,96.45
2017-10-21T03:01:59.127Z,96.45
2017-10-21T03:02:59.084Z,96.26
2017-10-21T03:03:59.065Z,96.45
2017-10-21T03:04:59.063Z,96.45
2017-10-21T03:05:59.066Z,96.45
2017-10-21T03:06:58.995Z,96.26
2017-10-21T03:07:58.972Z,96.36
2017-10-21T03:08:58.979Z,96.36
2017-10-21T03:09:58.927Z,96.45
2017-10-21T03:10:58.907Z,96.26
2017-10-21T03:11:58.894Z,96.26
2017-10-21T03:12:58.891Z,96.36
2017-10-21T03:13:58.849Z,96.93
2017-10-21T03:14:58.830Z,96.84
2017-10-21T03:15:58.815Z,96.84
2017-10-21T03:16:58.783Z,96.55
2017-10-21T03:17:58.764Z,96.84
2017-10-21T03:18:58.734Z,96.93
2017-10-21T03:19:58.733Z,96.45
2017-10-21T03:20:58.706Z,96.65
2017-10-21T03:21:58.679Z,96.65
2017-10-21T03:22:58.658Z,96.84
2017-10-21T03:23:58.641Z,96.93
2017-10-21T03:24:58.621Z,96.84
2017-10-21T03:25:58.592Z,96.74
2017-10-21T03:26:58.583Z,96.93
2017-10-21T03:27:58.548Z,97.12
2017-10-21T03:28:59.707Z,96.74
2017-10-21T03:29:58.509Z,96.93
2017-10-21T03:30:58.513Z,96.93
2017-10-21T03:31:58.468Z,96.84
2017-10-21T03:32:58.440Z,96.84
2017-10-21T03:33:58.434Z,96.74
2017-10-21T03:34:58.390Z,96.93
2017-10-21T03:35:58.377Z,96.84
2017-10-21T03:36:58.352Z,96.74
2017-10-21T03:37:58.353Z,96.74
2017-10-21T03:38:58.311Z,97.08
2017-10-21T03:39:58.303Z,97.55
2017-10-21T03:40:58.268Z,97.31
2017-10-21T03:41:58.256Z,97.36
2017-10-21T03:42:58.237Z,97.17
2017-10-21T03:43:58.212Z,97.36
2017-10-21T03:44:58.188Z,97.36
2017-10-21T03:45:58.162Z,97.17
2017-10-21T03:46:58.146Z,97.36
2017-10-21T03:47:58.123Z,97.55
2017-10-21T03:48:58.118Z,97.55
2017-10-21T03:49:58.080Z,97.36
2017-10-21T03:50:58.064Z,97.36
2017-10-21T03:51:58.040Z,97.27
2017-10-21T03:52:58.036Z,97.36
2017-10-21T03:53:57.995Z,97.27
2017-10-21T03:54:57.982Z,97.27
2017-10-21T03:55:57.958Z,97.36
2017-10-21T03:56:57.944Z,97.55
2017-10-21T03:57:57.913Z,97.45
2017-10-21T03:58:57.879Z,97.36
2017-10-21T03:59:57.881Z,97.36
2017-10-21T04:00:57.852Z,97.17
2017-10-21T04:01:57.817Z,97.36
2017-10-21T04:02:57.805Z,97.27
2017-10-21T04:03:57.780Z,97.17
2017-10-21T04:04:57.749Z,97.36
2017-10-21T04:05:57.732Z,97.27
2017-10-21T04:06:57.736Z,97.55
2017-10-21T04:07:57.722Z,96.69
2017-10-21T04:08:57.678Z,97.27
2017-10-21T04:09:57.669Z,96.89
2017-10-21T04:10:57.652Z,96.89
2017-10-21T04:11:57.617Z,96.89
2017-10-21T04:12:57.587Z,96.89
2017-10-21T04:13:57.573Z,96.89
2017-10-21T04:14:57.539Z,96.79
2017-10-21T04:15:57.535Z,96.89
2017-10-21T04:16:57.495Z,96.89
2017-10-21T04:17:57.508Z,97.08
2017-10-21T04:18:57.478Z,96.79
2017-10-21T04:19:57.444Z,96.69
2017-10-21T04:20:57.421Z,96.41
2017-10-21T04:21:57.398Z,96.50
2017-10-21T04:22:57.389Z,96.50
2017-10-21T04:23:57.367Z,96.41
2017-10-21T04:24:57.361Z,96.31
2017-10-21T04:25:57.310Z,96.12
2017-10-21T04:26:57.299Z,96.41
2017-10-21T04:27:57.274Z,96.60
2017-10-21T04:28:57.254Z,96.22
2017-10-21T04:29:57.232Z,96.41
2017-10-21T04:30:57.213Z,96.41
2017-10-21T04:31:57.187Z,96.69
2017-10-21T04:32:57.170Z,96.41
2017-10-21T04:33:57.148Z,96.50
2017-10-21T04:34:57.115Z,96.31
2017-10-21T04:35:57.098Z,96.41
2017-10-21T04:36:57.068Z,96.60
2017-10-21T04:37:57.061Z,96.69
2017-10-21T04:38:57.040Z,96.79
2017-10-21T04:39:57.029Z,96.89
2017-10-21T04:40:56.988Z,96.41
2017-10-21T04:41:56.968Z,96.31
2017-10-21T04:42:56.958Z,96.41
2017-10-21T04:43:56.941Z,96.31
2017-10-21T04:44:56.911Z,96.41
2017-10-21T04:45:56.890Z,95.94
2017-10-21T04:46:56.869Z,96.60
2017-10-21T04:47:56.852Z,96.41
2017-10-21T04:48:56.825Z,96.12
2017-10-21T04:49:56.819Z,96.50
2017-10-21T04:50:56.777Z,95.94
2017-10-21T04:51:56.756Z,96.50
2017-10-21T04:52:56.739Z,96.41
2017-10-21T04:53:56.718Z,95.94
2017-10-21T04:54:56.703Z,96.41
2017-10-21T04:55:56.676Z,96.50
2017-10-21T04:56:56.655Z,96.50
2017-10-21T04:57:56.633Z,96.41
2017-10-21T04:58:56.610Z,96.69
2017-10-21T04:59:56.601Z,96.31
2017-10-21T05:00:56.566Z,96.50
2017-10-21T05:01:56.563Z,96.41
2017-10-21T05:02:56.527Z,96.50
2017-10-21T05:03:56.511Z,95.94
2017-10-21T05:04:56.485Z,96.41
2017-10-21T05:05:56.467Z,96.50
2017-10-21T05:06:56.444Z,96.65
2017-10-21T05:07:56.419Z,96.22
2017-10-21T05:08:57.191Z,96.41
2017-10-21T05:09:56.381Z,96.26
2017-10-21T05:10:56.354Z,96.26
2017-10-21T05:11:56.361Z,96.31
2017-10-21T05:12:56.315Z,96.55
2017-10-21T05:13:56.289Z,96.36
2017-10-21T05:14:56.292Z,96.36
2017-10-21T05:15:56.249Z,96.46
2017-10-21T05:16:56.233Z,96.36
2017-10-21T05:17:56.214Z,96.17
2017-10-21T05:18:56.186Z,96.46
2017-10-21T05:19:56.182Z,96.26
2017-10-21T05:20:56.144Z,96.46
2017-10-21T05:21:56.121Z,96.55
2017-10-21T05:22:56.101Z,96.55
2017-10-21T05:23:56.086Z,96.46
2017-10-21T05:24:56.067Z,96.55
2017-10-21T05:25:56.061Z,96.36
2017-10-21T05:26:56.029Z,96.65
2017-10-21T05:27:56.004Z,96.46
2017-10-21T05:28:55.972Z,96.46
2017-10-21T05:29:55.963Z,96.36
2017-10-21T05:30:56.007Z,96.55
2017-10-21T05:31:55.909Z,96.74
2017-10-21T05:32:55.888Z,96.94
2017-10-21T05:33:55.883Z,96.74
2017-10-21T05:34:55.856Z,96.84
2017-10-21T05:35:55.827Z,97.03
2017-10-21T05:36:56.157Z,97.03
2017-10-21T05:37:55.802Z,96.94
2017-10-21T05:38:55.756Z,96.94
2017-10-21T05:39:55.855Z,96.84
2017-10-21T05:40:55.729Z,96.65
2017-10-21T05:41:55.709Z,96.94
2017-10-21T05:42:55.694Z,97.22
2017-10-21T05:43:55.669Z,97.13
2017-10-21T05:44:56.275Z,97.03
2017-10-21T05:45:55.632Z,96.84
2017-10-21T05:46:55.597Z,97.03
2017-10-21T05:47:55.604Z,96.74
2017-10-21T05:48:55.592Z,96.74
2017-10-21T05:49:55.562Z,96.74
2017-10-21T05:50:55.527Z,96.94
2017-10-21T05:51:55.492Z,97.13
2017-10-21T05:52:55.490Z,97.03
2017-10-21T05:53:55.472Z,97.03
2017-10-21T05:54:55.462Z,97.03
2017-10-21T05:55:55.434Z,96.94
2017-10-21T05:56:55.392Z,96.84
2017-10-21T05:57:55.374Z,97.13
2017-10-21T05:58:55.355Z,97.03
2017-10-21T05:59:55.337Z,97.13
2017-10-21T06:00:55.308Z,97.22
2017-10-21T06:01:55.294Z,97.13
2017-10-21T06:02:55.259Z,96.84
2017-10-21T06:03:55.376Z,97.03
2017-10-21T06:04:55.217Z,96.74
2017-10-21T06:05:55.221Z,97.69
2017-10-21T06:06:55.186Z,97.50
2017-10-21T06:07:55.166Z,97.13
2017-10-21T06:08:55.142Z,97.69
2017-10-21T06:09:55.120Z,97.03
2017-10-21T06:10:55.104Z,97.22
2017-10-21T06:11:55.087Z,96.84
2017-10-21T06:12:55.059Z,96.79
2017-10-21T06:13:55.048Z,96.70
2017-10-21T06:14:55.013Z,97.22
2017-10-21T06:15:54.997Z,96.74
2017-10-21T06:16:54.978Z,96.84
2017-10-21T06:17:54.953Z,97.08
2017-10-21T06:18:54.932Z,96.98
2017-10-21T06:19:54.905Z,96.89
2017-10-21T06:20:54.890Z,96.51
2017-10-21T06:21:54.873Z,96.60
2017-10-21T06:22:54.845Z,96.98
2017-10-21T06:23:54.834Z,96.98
2017-10-21T06:24:54.813Z,96.98
2017-10-21T06:25:54.782Z,96.22
2017-10-21T06:26:54.777Z,96.41
2017-10-21T06:27:54.746Z,96.31
2017-10-21T06:28:54.734Z,96.51
2017-10-21T06:29:54.717Z,96.51
2017-10-21T06:30:54.694Z,96.51
2017-10-21T06:31:54.685Z,97.08
2017-10-21T06:32:54.657Z,96.98
2017-10-21T06:33:54.631Z,96.79
2017-10-21T06:34:54.617Z,96.98
2017-10-21T06:35:54.574Z,96.79
2017-10-21T06:36:54.561Z,96.31
2017-10-21T06:37:54.558Z,96.60
2017-10-21T06:38:54.522Z,96.60
2017-10-21T06:39:54.532Z,96.60
2017-10-21T06:40:54.471Z,96.51
2017-10-21T06:41:54.466Z,96.60
2017-10-21T06:42:54.427Z,96.51
2017-10-21T06:43:54.411Z,96.51
2017-10-21T06:44:54.391Z,96.12
2017-10-21T06:45:54.372Z,96.41
2017-10-21T06:46:54.354Z,96.60
2017-10-21T06:47:54.328Z,96.41
2017-10-21T06:48:54.311Z,96.51
2017-10-21T06:49:54.296Z,97.08
2017-10-21T06:50:54.268Z,97.08
2017-10-21T06:51:54.258Z,97.03
2017-10-21T06:52:54.236Z,97.13
2017-10-21T06:53:54.196Z,96.79
2017-10-21T06:54:54.188Z,97.17
2017-10-21T06:55:54.170Z,97.13
2017-10-21T06:56:54.155Z,97.46
2017-10-21T06:57:54.122Z,97.27
2017-10-21T06:58:54.099Z,97.55
2017-10-21T06:59:54.084Z,97.55
2017-10-21T07:00:54.053Z,97.08
2017-10-21T07:01:54.035Z,97.08
2017-10-21T07:02:54.022Z,97.17
2017-10-21T07:03:54.020Z,96.98
2017-10-21T07:04:53.969Z,96.51
2017-10-21T07:05:53.955Z,96.51
2017-10-21T07:06:53.953Z,96.75
2017-10-21T07:07:53.921Z,97.03
2017-10-21T07:08:53.895Z,95.89
2017-10-21T07:09:53.906Z,95.32
2017-10-21T07:10:53.876Z,94.65
2017-10-21T07:11:53.888Z,94.79
2017-10-21T07:12:53.839Z,94.51
2017-10-21T07:13:53.827Z,94.60
2017-10-21T07:14:53.876Z,94.13
2017-10-21T07:15:53.752Z,94.13
2017-10-21T07:16:53.894Z,93.37
2017-10-21T07:17:53.725Z,93.37
2017-10-21T07:18:53.725Z,92.89
2017-10-21T07:19:53.791Z,93.37
2017-10-21T07:20:54.267Z,93.46
2017-10-21T07:21:53.645Z,93.65
2017-10-21T07:22:53.619Z,94.03
2017-10-21T07:23:53.584Z,93.93
2017-10-21T07:24:53.581Z,94.13
2017-10-21T07:25:53.581Z,93.84
2017-10-21T07:26:53.571Z,94.22
2017-10-21T07:27:53.784Z,94.51
2017-10-21T07:28:53.516Z,94.60
2017-10-21T07:29:53.461Z,94.22
2017-10-21T07:30:53.457Z,93.65
2017-10-21T07:31:53.437Z,93.74
2017-10-21T07:32:53.407Z,93.93
2017-10-21T07:33:53.427Z,93.55
2017-10-21T07:34:53.402Z,93.17
2017-10-21T07:35:53.344Z,92.32
2017-10-21T07:36:53.364Z,92.50
2017-10-21T07:37:53.326Z,91.84
2017-10-21T07:38:53.303Z,91.74
2017-10-21T07:39:53.292Z,91.94
2017-10-21T07:40:53.295Z,92.50
2017-10-21T07:41:53.242Z,91.94
2017-10-21T07:42:53.206Z,91.55
2017-10-21T07:43:53.393Z,91.65
2017-10-21T07:44:53.156Z,91.55
2017-10-21T07:45:53.315Z,91.74
2017-10-21T07:46:53.127Z,91.74
2017-10-21T07:47:53.146Z,90.98
2017-10-21T07:48:53.106Z,90.60
2017-10-21T07:49:53.082Z,91.03
2017-10-21T07:50:53.046Z,91.60
2017-10-21T07:51:53.069Z,91.41
2017-10-21T07:52:53.036Z,91.22
2017-10-21T07:53:53.012Z,91.13
2017-10-21T07:54:53.001Z,90.84
2017-10-21T07:55:52.943Z,91.50
2017-10-21T07:56:52.927Z,91.07
2017-10-21T07:57:52.924Z,91.27
2017-10-21T07:58:52.884Z,90.41
2017-10-21T07:59:52.886Z,89.74
2017-10-21T08:00:52.857Z,89.31
2017-10-21T08:01:52.821Z,89.02
2017-10-21T08:02:53.746Z,88.73
2017-10-21T08:03:52.787Z,88.73
2017-10-21T08:04:52.777Z,89.02
2017-10-21T08:05:52.744Z,88.49
2017-10-21T08:06:53.310Z,87.92
2017-10-21T08:07:52.774Z,85.96
2017-10-21T08:08:52.734Z,84.85
2017-10-21T08:09:52.676Z,83.33
2017-10-21T08:10:52.649Z,83.04
2017-10-21T08:11:52.681Z,83.61
2017-10-21T08:12:52.647Z,82.37
2017-10-21T08:13:52.648Z,82.12
2017-10-21T08:14:52.604Z,81.45
2017-10-21T08:15:52.561Z,80.25
2017-10-21T08:16:52.588Z,79.58
2017-10-21T08:17:52.578Z,79.10
2017-10-21T08:18:52.499Z,78.63
2017-10-21T08:19:52.481Z,78.43
2017-10-21T08:20:52.455Z,77.95
2017-10-21T08:21:52.443Z,77.95
2017-10-21T08:22:52.419Z,76.81
2017-10-21T08:23:52.414Z,77.38
2017-10-21T08:24:52.391Z,77.95
2017-10-21T08:25:52.365Z,78.49
2017-10-21T08:26:52.354Z,78.78
2017-10-21T08:27:52.331Z,79.16
2017-10-21T08:28:52.327Z,79.35
2017-10-21T08:29:52.283Z,79.73
2017-10-21T08:30:52.275Z,79.83
2017-10-21T08:31:52.259Z,79.64
2017-10-21T08:32:52.249Z,79.83
2017-10-21T08:33:52.219Z,79.64
2017-10-21T08:34:52.269Z,79.73
2017-10-21T08:35:52.192Z,80.21
2017-10-21T08:36:52.184Z,79.73
2017-10-21T08:37:52.143Z,79.54
2017-10-21T08:38:52.143Z,78.49
2017-10-21T08:39:52.159Z,79.35
2017-10-21T08:40:52.104Z,79.25
2017-10-21T08:41:52.071Z,79.58
2017-10-21T08:42:52.059Z,79.49
2017-10-21T08:43:52.030Z,78.14
2017-10-21T08:44:52.046Z,77.95
2017-10-21T08:45:51.993Z,77.92
2017-10-21T08:46:52.805Z,78.39
2017-10-21T08:47:51.962Z,78.24
2017-10-21T08:48:51.952Z,77.86
2017-10-21T08:49:51.931Z,77.19
2017-10-21T08:50:51.914Z,77.76
2017-10-21T08:51:51.888Z,78.01
2017-10-21T08:52:51.880Z,77.92
2017-10-21T08:53:51.861Z,77.57
2017-10-21T08:54:51.859Z,77.57
2017-10-21T08:55:51.817Z,77.19
2017-10-21T08:56:51.817Z,77.19
2017-10-21T08:57:51.784Z,76.90
2017-10-21T08:58:51.790Z,76.71
2017-10-21T08:59:51.742Z,77.00
2017-10-21T09:00:51.741Z,76.90
2017-10-21T09:01:51.744Z,77.48
2017-10-21T09:02:51.703Z,76.71
2017-10-21T09:03:51.680Z,77.00
2017-10-21T09:04:51.705Z,77.57
2017-10-21T09:05:51.636Z,77.95
2017-10-21T09:06:51.617Z,78.49
2017-10-21T09:07:51.597Z,78.78
2017-10-21T09:08:51.589Z,78.68
2017-10-21T09:09:51.561Z,79.16
2017-10-21T09:10:51.550Z,78.87
2017-10-21T09:11:51.547Z,78.20
2017-10-21T09:12:51.547Z,78.49
2017-10-21T09:13:51.501Z,79.06
2017-10-21T09:14:51.472Z,79.16
2017-10-21T09:15:51.497Z,79.02
2017-10-21T09:16:51.454Z,79.60
2017-10-21T09:17:51.427Z,79.79
2017-10-21T09:18:51.414Z,80.07
2017-10-21T09:19:51.393Z,80.36
2017-10-21T09:20:51.376Z,80.27
2017-10-21T09:21:51.348Z,80.07
2017-10-21T09:22:51.329Z,80.17
2017-10-21T09:23:51.309Z,79.88
2017-10-21T09:24:51.290Z,79.88
2017-10-21T09:25:51.291Z,80.65
2017-10-21T09:26:51.252Z,80.46
2017-10-21T09:27:51.236Z,80.65
2017-10-21T09:28:51.230Z,80.27
2017-10-21T09:29:51.235Z,79.98
2017-10-21T09:30:51.184Z,79.88
2017-10-21T09:31:51.165Z,79.88
2017-10-21T09:32:51.140Z,79.69
2017-10-21T09:33:51.167Z,79.41
2017-10-21T09:34:51.117Z,79.12
2017-10-21T09:35:51.085Z,78.74
2017-10-21T09:36:51.071Z,79.12
2017-10-21T09:37:51.203Z,79.22
2017-10-21T09:38:51.062Z,79.02
2017-10-21T09:39:51.017Z,79.12
2017-10-21T09:40:50.992Z,79.12
2017-10-21T09:41:50.981Z,79.41
2017-10-21T09:42:50.956Z,79.12
2017-10-21T09:43:50.953Z,78.64
2017-10-21T09:44:50.918Z,79.31
2017-10-21T09:45:50.968Z,78.93
2017-10-21T09:46:50.885Z,78.83
2017-10-21T09:47:50.868Z,79.12
2017-10-21T09:48:50.842Z,78.74
2017-10-21T09:49:50.838Z,78.68
2017-10-21T09:50:50.814Z,78.30
2017-10-21T09:51:50.785Z,78.20
2017-10-21T09:52:50.764Z,77.92
2017-10-21T09:53:50.760Z,76.71
2017-10-21T09:54:50.739Z,75.51
2017-10-21T09:55:51.466Z,74.58
2017-10-21T09:56:50.697Z,73.86
2017-10-21T09:57:50.668Z,71.59
2017-10-21T09:58:50.670Z,69.81
2017-10-21T09:59:50.750Z,69.07
2017-10-21T10:00:50.617Z,67.90
2017-10-21T10:01:50.617Z,65.56
2017-10-21T10:02:50.577Z,62.83
2017-10-21T10:03:50.577Z,59.97
2017-10-21T10:04:50.541Z,58.40
2017-10-21T10:05:50.589Z,58.89
2017-10-21T10:06:50.604Z,59.63
2017-10-21T10:07:50.505Z,60.75
2017-10-21T10:08:50.493Z,60.94
2017-10-21T10:09:50.480Z,60.56
2017-10-21T10:10:50.451Z,61.11
2017-10-21T10:11:50.428Z,61.97
2017-10-21T10:12:50.440Z,61.30
2017-10-21T10:13:50.396Z,61.40
2017-10-21T10:14:50.397Z,60.27
2017-10-21T10:15:50.375Z,59.24
2017-10-21T10:16:50.365Z,58.95
2017-10-21T10:17:50.348Z,59.34
2017-10-21T10:18:50.377Z,58.18
2017-10-21T10:19:50.311Z,58.45
2017-10-21T10:20:50.459Z,59.22
2017-10-21T10:21:50.275Z,59.63
2017-10-21T10:22:50.272Z,59.05
2017-10-21T10:23:50.303Z,57.97
2017-10-21T10:24:50.224Z,58.61
2017-10-21T10:25:50.203Z,59.76
2017-10-21T10:26:50.245Z,61.27
2017-10-21T10:27:50.186Z,61.72
2017-10-21T10:28:50.287Z,62.96
2017-10-21T10:29:50.155Z,63.45
2017-10-21T10:30:50.131Z,63.79
2017-10-21T10:31:50.115Z,64.85
2017-10-21T10:32:50.336Z,65.30
2017-10-21T10:33:50.094Z,66.45
2017-10-21T10:34:50.068Z,67.28
2017-10-21T10:35:50.077Z,68.14
2017-10-21T10:36:50.050Z,68.62
2017-10-21T10:37:50.049Z,69.07
2017-10-21T10:38:50.010Z,69.17
2017-10-21T10:39:49.991Z,69.64
2017-10-21T10:40:49.967Z,70.50
2017-10-21T10:41:49.957Z,70.41
2017-10-21T10:42:49.953Z,70.41
2017-10-21T10:43:49.926Z,70.21
2017-10-21T10:44:49.897Z,70.89
2017-10-21T10:45:49.879Z,71.27
2017-10-21T10:46:49.874Z,70.25
2017-10-21T10:47:49.850Z,70.54
2017-10-21T10:48:49.994Z,70.15
2017-10-21T10:49:49.822Z,69.77
2017-10-21T10:50:49.816Z,69.96
2017-10-21T10:51:49.782Z,69.39
2017-10-21T10:52:49.771Z,69.77
2017-10-21T10:53:49.755Z,69.23
2017-10-21T10:54:49.736Z,68.95
2017-10-21T10:55:49.710Z,69.52
2017-10-21T10:56:49.712Z,69.81
2017-10-21T10:57:49.683Z,69.39
2017-10-21T10:58:49.671Z,69.68
2017-10-21T10:59:49.647Z,69.39
2017-10-21T11:00:49.644Z,69.77
2017-10-21T11:01:49.653Z,69.77
2017-10-21T11:02:49.617Z,70.83
2017-10-21T11:03:49.724Z,70.83
2017-10-21T11:04:49.579Z,71.50
2017-10-21T11:05:49.554Z,71.69
2017-10-21T11:06:49.565Z,71.05
2017-10-21T11:07:49.508Z,71.25
2017-10-21T11:08:49.500Z,70.38
2017-10-21T11:09:49.484Z,70.67
2017-10-21T11:10:49.713Z,70.67
2017-10-21T11:11:49.460Z,71.05
2017-10-21T11:12:49.435Z,71.34
2017-10-21T11:13:49.432Z,72.55
2017-10-21T11:14:49.401Z,74.66
2017-10-21T11:15:49.385Z,75.68
2017-10-21T11:16:49.387Z,76.73
2017-10-21T11:17:49.359Z,77.17
2017-10-21T11:18:49.462Z,78.42
2017-10-21T11:19:49.318Z,79.28
2017-10-21T11:20:49.352Z,80.24
2017-10-21T11:21:49.968Z,80.14
2017-10-21T11:22:49.325Z,81.15
2017-10-21T11:23:49.254Z,81.34
2017-10-21T11:24:49.222Z,81.73
2017-10-21T11:25:49.210Z,81.44
2017-10-21T11:27:49.440Z,83.73
2017-10-21T11:28:49.189Z,83.98
2017-10-21T11:29:49.165Z,85.61
2017-10-21T11:30:49.150Z,86.18
2017-10-21T11:31:49.124Z,86.04
2017-10-21T11:32:49.107Z,87.00
2017-10-21T11:34:10.086Z,87.38
2017-10-21T11:34:49.259Z,87.95
2017-10-21T11:35:49.065Z,88.15
2017-10-21T11:36:49.036Z,88.72
2017-10-21T11:37:49.018Z,89.58
2017-10-21T11:38:49.104Z,90.44
2017-10-21T11:40:09.984Z,89.96
2017-10-21T11:40:48.987Z,90.63
2017-10-21T11:41:49.136Z,90.34
2017-10-21T11:42:48.987Z,90.44
2017-10-21T11:43:48.920Z,90.34
2017-10-21T11:44:48.897Z,91.49
2017-10-21T11:46:10.026Z,92.25
2017-10-21T11:46:49.063Z,92.83
2017-10-21T11:47:49.429Z,92.74
2017-10-21T11:48:48.842Z,92.64
2017-10-21T11:49:48.969Z,92.54
2017-10-21T11:50:48.988Z,92.69
2017-10-21T11:52:09.788Z,92.93
2017-10-21T11:52:48.755Z,93.50
2017-10-21T11:53:48.754Z,93.65
2017-10-21T11:54:48.959Z,94.02
2017-10-21T11:55:48.709Z,94.12
2017-10-21T11:56:49.533Z,94.22
2017-10-21T11:58:09.664Z,94.41
2017-10-21T11:58:48.669Z,94.51
2017-10-21T11:59:48.634Z,94.51
2017-10-21T12:00:48.614Z,94.93
2017-10-21T12:01:48.589Z,94.84
2017-10-21T12:02:48.605Z,93.88
2017-10-21T12:04:09.574Z,94.65
2017-10-21T12:04:48.549Z,94.46
2017-10-21T12:05:48.536Z,94.60
2017-10-21T12:06:48.513Z,95.07
2017-10-21T12:07:48.488Z,94.70
2017-10-21T12:08:48.463Z,95.07
2017-10-21T12:10:09.475Z,95.12
2017-10-21T12:10:48.644Z,95.12
2017-10-21T12:11:48.408Z,95.03
2017-10-21T12:12:48.394Z,95.12
2017-10-21T12:13:48.368Z,95.03
2017-10-21T12:14:48.364Z,94.36
2017-10-21T12:16:09.344Z,94.46
2017-10-21T12:16:48.322Z,94.46
2017-10-21T12:17:48.322Z,94.31
2017-10-21T12:18:48.292Z,94.60
2017-10-21T12:19:48.283Z,94.17
2017-10-21T12:20:48.300Z,94.70
2017-10-21T12:22:09.233Z,94.65
2017-10-21T12:22:48.392Z,94.70
2017-10-21T12:23:48.214Z,94.12
2017-10-21T12:24:48.288Z,94.12
2017-10-21T12:25:48.156Z,94.50
2017-10-21T12:26:48.148Z,94.12
2017-10-21T12:28:09.290Z,93.84
2017-10-21T12:28:48.106Z,93.45
2017-10-21T12:29:48.095Z,93.74
2017-10-21T12:30:48.081Z,94.02
2017-10-21T12:31:48.081Z,94.02
2017-10-21T12:32:48.047Z,93.84
2017-10-21T12:34:09.021Z,93.84
2017-10-21T12:34:47.991Z,93.64
2017-10-21T12:35:47.996Z,93.45
2017-10-21T12:36:47.958Z,93.35
2017-10-21T12:37:47.950Z,93.60
2017-10-21T12:38:47.932Z,93.64
2017-10-21T12:40:08.918Z,94.31
2017-10-21T12:40:47.894Z,94.60
2017-10-21T12:41:47.880Z,94.31
2017-10-21T12:42:47.854Z,94.31
2017-10-21T12:43:47.839Z,94.60
2017-10-21T12:44:47.826Z,94.12
2017-10-21T12:46:08.817Z,93.84
2017-10-21T12:46:47.789Z,93.30
2017-10-21T12:47:47.759Z,92.73
2017-10-21T12:48:47.742Z,93.12
2017-10-21T12:49:47.722Z,91.77
2017-10-21T12:50:47.751Z,91.15
2017-10-21T12:52:08.690Z,91.30
2017-10-21T12:52:47.672Z,90.86